sensor_id;sensor_type;location;lat;lon;timestamp;pressure;altitude;pressure_sealevel;temperature;humidity
86322;BME280;76978;42.798;23.336;2024-03-17T00:00:41;95900.09;;;9.41;57.92
86322;BME280;76978;42.798;23.336;2024-03-17T00:03:08;95895.19;;;9.38;57.89
86322;BME280;76978;42.798;23.336;2024-03-17T00:05:37;95894.63;;;9.34;58.20
86322;BME280;76978;42.798;23.336;2024-03-17T00:08:03;95896.13;;;9.37;57.91
86322;BME280;76978;42.798;23.336;2024-03-17T00:10:31;95891.09;;;9.35;57.85
86322;BME280;76978;42.798;23.336;2024-03-17T00:12:56;95905.03;;;9.21;56.98
86322;BME280;76978;42.798;23.336;2024-03-17T00:15:23;95899.34;;;9.07;57.02
86322;BME280;76978;42.798;23.336;2024-03-17T00:17:48;95897.84;;;8.93;57.54
86322;BME280;76978;42.798;23.336;2024-03-17T00:20:13;95906.13;;;8.85;57.62
86322;BME280;76978;42.798;23.336;2024-03-17T00:22:47;95897.38;;;8.77;58.14
86322;BME280;76978;42.798;23.336;2024-03-17T00:25:12;95898.78;;;8.69;57.03
86322;BME280;76978;42.798;23.336;2024-03-17T00:27:37;95897.50;;;8.64;56.87
86322;BME280;76978;42.798;23.336;2024-03-17T00:30:07;95899.94;;;8.54;57.08
86322;BME280;76978;42.798;23.336;2024-03-17T00:32:38;95905.56;;;8.48;57.72
86322;BME280;76978;42.798;23.336;2024-03-17T00:35:03;95899.22;;;8.41;57.85
86322;BME280;76978;42.798;23.336;2024-03-17T00:37:30;95899.88;;;8.32;57.22
86322;BME280;76978;42.798;23.336;2024-03-17T00:39:55;95899.16;;;8.19;56.65
86322;BME280;76978;42.798;23.336;2024-03-17T00:42:21;95894.69;;;8.09;57.61
86322;BME280;76978;42.798;23.336;2024-03-17T00:44:46;95892.34;;;7.95;57.33
86322;BME280;76978;42.798;23.336;2024-03-17T00:47:11;95900.38;;;7.91;57.74
86322;BME280;76978;42.798;23.336;2024-03-17T00:49:37;95896.50;;;7.85;58.59
86322;BME280;76978;42.798;23.336;2024-03-17T00:52:02;95901.75;;;7.83;59.26
86322;BME280;76978;42.798;23.336;2024-03-17T00:54:28;95894.16;;;7.82;58.86
86322;BME280;76978;42.798;23.336;2024-03-17T00:56:53;95898.50;;;7.81;58.39
86322;BME280;76978;42.798;23.336;2024-03-17T00:59:19;95891.69;;;7.80;58.37
86322;BME280;76978;42.798;23.336;2024-03-17T01:01:44;95885.25;;;7.75;58.86
86322;BME280;76978;42.798;23.336;2024-03-17T01:04:10;95892.16;;;7.74;58.55
86322;BME280;76978;42.798;23.336;2024-03-17T01:06:35;95896.91;;;7.68;59.65
86322;BME280;76978;42.798;23.336;2024-03-17T01:09:01;95895.38;;;7.65;59.33
86322;BME280;76978;42.798;23.336;2024-03-17T01:11:26;95893.03;;;7.62;60.04
86322;BME280;76978;42.798;23.336;2024-03-17T01:13:52;95893.25;;;7.59;60.23
86322;BME280;76978;42.798;23.336;2024-03-17T01:16:17;95897.38;;;7.62;60.55
86322;BME280;76978;42.798;23.336;2024-03-17T01:18:43;95895.63;;;7.62;60.41
86322;BME280;76978;42.798;23.336;2024-03-17T01:21:10;95899.47;;;7.68;60.54
86322;BME280;76978;42.798;23.336;2024-03-17T01:23:37;95902.84;;;7.68;60.29
86322;BME280;76978;42.798;23.336;2024-03-17T01:26:02;95888.38;;;7.67;60.58
86322;BME280;76978;42.798;23.336;2024-03-17T01:28:27;95893.50;;;7.67;59.54
86322;BME280;76978;42.798;23.336;2024-03-17T01:30:53;95895.38;;;7.65;59.23
86322;BME280;76978;42.798;23.336;2024-03-17T01:33:18;95896.53;;;7.61;58.29
86322;BME280;76978;42.798;23.336;2024-03-17T01:35:44;95893.59;;;7.54;58.27
86322;BME280;76978;42.798;23.336;2024-03-17T01:38:09;95895.44;;;7.52;58.65
86322;BME280;76978;42.798;23.336;2024-03-17T01:40:37;95902.44;;;7.50;59.45
86322;BME280;76978;42.798;23.336;2024-03-17T01:43:03;95893.19;;;7.48;58.97
86322;BME280;76978;42.798;23.336;2024-03-17T01:45:30;95893.66;;;7.42;59.49
86322;BME280;76978;42.798;23.336;2024-03-17T01:47:57;95895.94;;;7.34;58.93
86322;BME280;76978;42.798;23.336;2024-03-17T01:50:25;95896.16;;;7.31;59.53
86322;BME280;76978;42.798;23.336;2024-03-17T01:52:53;95907.78;;;7.23;60.10
86322;BME280;76978;42.798;23.336;2024-03-17T01:55:21;95908.31;;;7.16;59.89
86322;BME280;76978;42.798;23.336;2024-03-17T01:57:49;95898.72;;;7.07;60.38
86322;BME280;76978;42.798;23.336;2024-03-17T02:00:15;95893.28;;;6.98;60.47
86322;BME280;76978;42.798;23.336;2024-03-17T02:02:40;95905.31;;;6.98;59.91
86322;BME280;76978;42.798;23.336;2024-03-17T02:05:06;95897.72;;;6.96;59.88
86322;BME280;76978;42.798;23.336;2024-03-17T02:07:32;95894.31;;;6.96;60.38
86322;BME280;76978;42.798;23.336;2024-03-17T02:09:57;95899.75;;;6.91;59.81
86322;BME280;76978;42.798;23.336;2024-03-17T02:12:24;95894.84;;;6.88;59.34
86322;BME280;76978;42.798;23.336;2024-03-17T02:14:50;95896.81;;;6.85;59.83
86322;BME280;76978;42.798;23.336;2024-03-17T02:17:16;95890.75;;;6.86;60.06
86322;BME280;76978;42.798;23.336;2024-03-17T02:19:41;95896.19;;;6.81;59.54
86322;BME280;76978;42.798;23.336;2024-03-17T02:22:13;95897.34;;;6.77;59.98
86322;BME280;76978;42.798;23.336;2024-03-17T02:24:40;95899.19;;;6.75;60.04
86322;BME280;76978;42.798;23.336;2024-03-17T02:27:05;95899.50;;;6.71;59.94
86322;BME280;76978;42.798;23.336;2024-03-17T02:29:30;95898.88;;;6.67;59.37
86322;BME280;76978;42.798;23.336;2024-03-17T02:31:56;95897.13;;;6.67;60.33
86322;BME280;76978;42.798;23.336;2024-03-17T02:34:21;95895.72;;;6.63;59.76
86322;BME280;76978;42.798;23.336;2024-03-17T02:36:46;95900.94;;;6.62;60.02
86322;BME280;76978;42.798;23.336;2024-03-17T02:39:12;95893.44;;;6.59;60.53
86322;BME280;76978;42.798;23.336;2024-03-17T02:42:00;95899.63;;;6.56;60.74
86322;BME280;76978;42.798;23.336;2024-03-17T02:44:26;95895.53;;;6.54;59.93
86322;BME280;76978;42.798;23.336;2024-03-17T02:46:52;95894.81;;;6.52;59.75
86322;BME280;76978;42.798;23.336;2024-03-17T02:49:17;95887.31;;;6.49;59.57
86322;BME280;76978;42.798;23.336;2024-03-17T02:51:43;95880.03;;;6.43;59.24
86322;BME280;76978;42.798;23.336;2024-03-17T02:54:09;95892.06;;;6.42;59.49
86322;BME280;76978;42.798;23.336;2024-03-17T02:56:34;95898.19;;;6.39;59.56
86322;BME280;76978;42.798;23.336;2024-03-17T02:59:00;95890.81;;;6.35;59.92
86322;BME280;76978;42.798;23.336;2024-03-17T03:01:25;95898.59;;;6.33;59.47
86322;BME280;76978;42.798;23.336;2024-03-17T03:03:51;95894.91;;;6.25;59.15
86322;BME280;76978;42.798;23.336;2024-03-17T03:06:16;95891.03;;;6.19;60.15
86322;BME280;76978;42.798;23.336;2024-03-17T03:08:45;95890.28;;;6.17;59.79
86322;BME280;76978;42.798;23.336;2024-03-17T03:11:16;95888.16;;;6.11;59.30
86322;BME280;76978;42.798;23.336;2024-03-17T03:13:42;95882.38;;;6.07;60.36
86322;BME280;76978;42.798;23.336;2024-03-17T03:16:10;95885.16;;;6.04;59.79
86322;BME280;76978;42.798;23.336;2024-03-17T03:18:37;95889.25;;;6.07;60.28
86322;BME280;76978;42.798;23.336;2024-03-17T03:21:04;95885.06;;;6.06;60.62
86322;BME280;76978;42.798;23.336;2024-03-17T03:23:30;95890.06;;;6.07;60.85
86322;BME280;76978;42.798;23.336;2024-03-17T03:26:00;95883.31;;;6.06;60.95
86322;BME280;76978;42.798;23.336;2024-03-17T03:28:27;95888.75;;;6.02;60.70
86322;BME280;76978;42.798;23.336;2024-03-17T03:30:53;95885.47;;;6.00;61.47
86322;BME280;76978;42.798;23.336;2024-03-17T03:33:19;95892.94;;;6.03;61.50
86322;BME280;76978;42.798;23.336;2024-03-17T03:35:45;95887.72;;;6.04;60.87
86322;BME280;76978;42.798;23.336;2024-03-17T03:38:11;95890.06;;;6.07;60.70
86322;BME280;76978;42.798;23.336;2024-03-17T03:40:38;95897.69;;;6.09;61.35
86322;BME280;76978;42.798;23.336;2024-03-17T03:43:04;95890.38;;;6.03;60.49
86322;BME280;76978;42.798;23.336;2024-03-17T03:45:29;95895.84;;;6.11;60.39
86322;BME280;76978;42.798;23.336;2024-03-17T03:47:55;95897.47;;;6.12;60.30
86322;BME280;76978;42.798;23.336;2024-03-17T03:50:21;95902.59;;;6.12;60.29
86322;BME280;76978;42.798;23.336;2024-03-17T03:52:48;95900.84;;;6.13;60.46
86322;BME280;76978;42.798;23.336;2024-03-17T03:55:16;95900.03;;;6.12;61.30
86322;BME280;76978;42.798;23.336;2024-03-17T03:57:42;95904.44;;;6.10;61.40
86322;BME280;76978;42.798;23.336;2024-03-17T04:00:08;95909.47;;;6.12;61.41
86322;BME280;76978;42.798;23.336;2024-03-17T04:02:41;95908.66;;;6.11;61.65
86322;BME280;76978;42.798;23.336;2024-03-17T04:05:08;95907.50;;;6.15;60.77
86322;BME280;76978;42.798;23.336;2024-03-17T04:07:34;95903.41;;;6.13;61.70
86322;BME280;76978;42.798;23.336;2024-03-17T04:10:01;95913.78;;;6.11;61.02
86322;BME280;76978;42.798;23.336;2024-03-17T04:12:27;95915.41;;;6.12;61.29
86322;BME280;76978;42.798;23.336;2024-03-17T04:14:53;95916.13;;;6.14;60.60
86322;BME280;76978;42.798;23.336;2024-03-17T04:17:22;95914.69;;;6.10;60.75
86322;BME280;76978;42.798;23.336;2024-03-17T04:19:48;95919.09;;;6.08;60.70
86322;BME280;76978;42.798;23.336;2024-03-17T04:22:15;95920.53;;;6.12;60.59
86322;BME280;76978;42.798;23.336;2024-03-17T04:24:44;95921.47;;;6.11;60.21
86322;BME280;76978;42.798;23.336;2024-03-17T04:27:10;95922.38;;;6.10;60.64
86322;BME280;76978;42.798;23.336;2024-03-17T04:29:36;95921.75;;;6.06;60.60
86322;BME280;76978;42.798;23.336;2024-03-17T04:32:02;95934.50;;;6.08;60.85
86322;BME280;76978;42.798;23.336;2024-03-17T04:34:30;95929.53;;;6.05;61.49
86322;BME280;76978;42.798;23.336;2024-03-17T04:36:56;95932.81;;;6.07;61.76
86322;BME280;76978;42.798;23.336;2024-03-17T04:39:22;95942.19;;;6.08;61.67
86322;BME280;76978;42.798;23.336;2024-03-17T04:41:48;95940.31;;;6.10;61.42
86322;BME280;76978;42.798;23.336;2024-03-17T04:44:13;95942.78;;;6.12;61.18
86322;BME280;76978;42.798;23.336;2024-03-17T04:46:39;95953.75;;;6.14;60.87
86322;BME280;76978;42.798;23.336;2024-03-17T04:49:05;95951.91;;;6.16;61.08
86322;BME280;76978;42.798;23.336;2024-03-17T04:51:30;95959.69;;;6.14;60.16
86322;BME280;76978;42.798;23.336;2024-03-17T04:53:58;95962.69;;;6.08;60.68
86322;BME280;76978;42.798;23.336;2024-03-17T04:56:24;95966.22;;;6.05;59.87
86322;BME280;76978;42.798;23.336;2024-03-17T04:58:49;95968.91;;;6.04;60.86
86322;BME280;76978;42.798;23.336;2024-03-17T05:01:14;95981.00;;;6.02;61.36
86322;BME280;76978;42.798;23.336;2024-03-17T05:03:40;95977.50;;;6.03;60.50
86322;BME280;76978;42.798;23.336;2024-03-17T05:06:05;95973.31;;;6.02;61.04
86322;BME280;76978;42.798;23.336;2024-03-17T05:08:32;95980.78;;;6.05;60.91
86322;BME280;76978;42.798;23.336;2024-03-17T05:11:02;95984.06;;;6.07;60.81
86322;BME280;76978;42.798;23.336;2024-03-17T05:13:32;95981.34;;;6.10;61.71
86322;BME280;76978;42.798;23.336;2024-03-17T05:15:57;95987.16;;;6.12;61.29
86322;BME280;76978;42.798;23.336;2024-03-17T05:18:23;95988.59;;;6.16;61.59
86322;BME280;76978;42.798;23.336;2024-03-17T05:21:04;95984.19;;;6.18;61.25
86322;BME280;76978;42.798;23.336;2024-03-17T05:23:31;95992.31;;;6.25;61.31
86322;BME280;76978;42.798;23.336;2024-03-17T05:25:57;95993.75;;;6.29;61.28
86322;BME280;76978;42.798;23.336;2024-03-17T05:28:27;95992.75;;;6.31;61.72
86322;BME280;76978;42.798;23.336;2024-03-17T05:30:53;95990.59;;;6.38;61.52
86322;BME280;76978;42.798;23.336;2024-03-17T05:33:19;95993.59;;;6.45;61.52
86322;BME280;76978;42.798;23.336;2024-03-17T05:35:56;95994.81;;;6.52;61.02
86322;BME280;76978;42.798;23.336;2024-03-17T05:38:23;95995.13;;;6.60;60.70
86322;BME280;76978;42.798;23.336;2024-03-17T05:41:01;95999.97;;;6.64;60.77
86322;BME280;76978;42.798;23.336;2024-03-17T05:43:29;95989.00;;;6.62;61.23
86322;BME280;76978;42.798;23.336;2024-03-17T05:45:59;95997.78;;;6.71;61.44
86322;BME280;76978;42.798;23.336;2024-03-17T05:48:26;95994.63;;;6.80;61.26
86322;BME280;76978;42.798;23.336;2024-03-17T05:50:51;96006.13;;;6.87;61.44
86322;BME280;76978;42.798;23.336;2024-03-17T05:53:17;96000.16;;;7.00;61.49
86322;BME280;76978;42.798;23.336;2024-03-17T05:55:44;96006.09;;;7.13;61.40
86322;BME280;76978;42.798;23.336;2024-03-17T05:58:10;96001.75;;;7.26;60.69
86322;BME280;76978;42.798;23.336;2024-03-17T06:00:36;95999.66;;;7.44;60.61
86322;BME280;76978;42.798;23.336;2024-03-17T06:03:02;96006.19;;;7.61;60.31
86322;BME280;76978;42.798;23.336;2024-03-17T06:05:31;95998.75;;;7.69;60.00
86322;BME280;76978;42.798;23.336;2024-03-17T06:08:01;96004.75;;;7.80;59.76
86322;BME280;76978;42.798;23.336;2024-03-17T06:10:31;96004.97;;;8.01;58.90
86322;BME280;76978;42.798;23.336;2024-03-17T06:12:57;95999.69;;;8.16;58.23
86322;BME280;76978;42.798;23.336;2024-03-17T06:15:24;96004.75;;;8.28;57.97
86322;BME280;76978;42.798;23.336;2024-03-17T06:17:50;96006.56;;;8.39;57.89
86322;BME280;76978;42.798;23.336;2024-03-17T06:20:23;96011.38;;;8.55;57.99
86322;BME280;76978;42.798;23.336;2024-03-17T06:23:01;96005.25;;;8.68;57.32
86322;BME280;76978;42.798;23.336;2024-03-17T06:25:26;96013.69;;;8.82;56.83
86322;BME280;76978;42.798;23.336;2024-03-17T06:27:53;96008.06;;;8.88;56.52
86322;BME280;76978;42.798;23.336;2024-03-17T06:30:19;96010.50;;;9.00;56.19
86322;BME280;76978;42.798;23.336;2024-03-17T06:32:45;96011.00;;;9.06;55.81
86322;BME280;76978;42.798;23.336;2024-03-17T06:35:12;96016.97;;;9.17;55.58
86322;BME280;76978;42.798;23.336;2024-03-17T06:38:01;96019.41;;;9.30;55.43
86322;BME280;76978;42.798;23.336;2024-03-17T06:40:26;96023.28;;;9.47;55.39
86322;BME280;76978;42.798;23.336;2024-03-17T06:42:51;96017.75;;;9.63;55.50
86322;BME280;76978;42.798;23.336;2024-03-17T06:45:18;96005.66;;;9.74;54.49
86322;BME280;76978;42.798;23.336;2024-03-17T06:47:46;96013.00;;;9.90;54.01
86322;BME280;76978;42.798;23.336;2024-03-17T06:50:11;96018.34;;;10.09;53.87
86322;BME280;76978;42.798;23.336;2024-03-17T06:52:37;96010.78;;;10.29;53.55
86322;BME280;76978;42.798;23.336;2024-03-17T06:55:03;96014.19;;;10.50;52.01
86322;BME280;76978;42.798;23.336;2024-03-17T06:57:31;96017.03;;;10.68;52.71
86322;BME280;76978;42.798;23.336;2024-03-17T07:00:27;96002.69;;;10.75;52.42
86322;BME280;76978;42.798;23.336;2024-03-17T07:03:29;96005.69;;;10.80;51.03
86322;BME280;76978;42.798;23.336;2024-03-17T07:05:56;96012.22;;;10.84;51.22
86322;BME280;76978;42.798;23.336;2024-03-17T07:08:23;96017.41;;;10.84;51.46
86322;BME280;76978;42.798;23.336;2024-03-17T07:11:06;96015.75;;;10.83;52.26
86322;BME280;76978;42.798;23.336;2024-03-17T07:13:36;96011.88;;;10.68;53.89
86322;BME280;76978;42.798;23.336;2024-03-17T07:16:03;96023.78;;;10.59;53.66
86322;BME280;76978;42.798;23.336;2024-03-17T07:18:31;96026.66;;;10.45;54.40
86322;BME280;76978;42.798;23.336;2024-03-17T07:21:01;96027.28;;;10.37;55.03
86322;BME280;76978;42.798;23.336;2024-03-17T07:23:30;96026.59;;;10.35;55.45
86322;BME280;76978;42.798;23.336;2024-03-17T07:25:58;96032.31;;;10.39;54.67
86322;BME280;76978;42.798;23.336;2024-03-17T07:28:24;96037.59;;;10.37;55.59
86322;BME280;76978;42.798;23.336;2024-03-17T07:30:52;96036.47;;;10.51;55.28
86322;BME280;76978;42.798;23.336;2024-03-17T07:33:18;96040.41;;;10.66;54.15
86322;BME280;76978;42.798;23.336;2024-03-17T07:35:54;96032.72;;;10.76;53.84
86322;BME280;76978;42.798;23.336;2024-03-17T07:38:22;96032.66;;;10.87;53.44
86322;BME280;76978;42.798;23.336;2024-03-17T07:43:23;96036.28;;;11.06;53.42
86322;BME280;76978;42.798;23.336;2024-03-17T07:48:25;96038.13;;;11.24;52.33
86322;BME280;76978;42.798;23.336;2024-03-17T07:50:56;96024.59;;;11.32;52.17
86322;BME280;76978;42.798;23.336;2024-03-17T07:53:22;96027.84;;;11.34;52.12
86322;BME280;76978;42.798;23.336;2024-03-17T07:55:47;96024.50;;;11.43;52.41
86322;BME280;76978;42.798;23.336;2024-03-17T07:58:12;96027.47;;;11.48;53.67
86322;BME280;76978;42.798;23.336;2024-03-17T08:00:38;96026.97;;;11.54;53.95
86322;BME280;76978;42.798;23.336;2024-03-17T08:03:03;96023.31;;;11.67;53.93
86322;BME280;76978;42.798;23.336;2024-03-17T08:05:30;96023.78;;;11.81;52.33
86322;BME280;76978;42.798;23.336;2024-03-17T08:07:55;96010.88;;;11.91;51.54
86322;BME280;76978;42.798;23.336;2024-03-17T08:10:20;96008.47;;;12.09;51.65
86322;BME280;76978;42.798;23.336;2024-03-17T08:12:47;96015.28;;;12.19;50.37
86322;BME280;76978;42.798;23.336;2024-03-17T08:15:12;96010.25;;;12.28;50.33
86322;BME280;76978;42.798;23.336;2024-03-17T08:17:38;96000.94;;;12.54;49.33
86322;BME280;76978;42.798;23.336;2024-03-17T08:20:03;96007.75;;;12.74;48.64
86322;BME280;76978;42.798;23.336;2024-03-17T08:22:29;96003.88;;;12.88;48.42
86322;BME280;76978;42.798;23.336;2024-03-17T08:24:55;96004.16;;;12.95;49.20
86322;BME280;76978;42.798;23.336;2024-03-17T08:27:20;96001.25;;;13.07;48.57
86322;BME280;76978;42.798;23.336;2024-03-17T08:29:46;95998.78;;;13.16;48.86
86322;BME280;76978;42.798;23.336;2024-03-17T08:32:11;95994.38;;;13.36;48.80
86322;BME280;76978;42.798;23.336;2024-03-17T08:34:37;95998.25;;;13.49;48.05
86322;BME280;76978;42.798;23.336;2024-03-17T08:37:03;95996.44;;;13.59;47.04
86322;BME280;76978;42.798;23.336;2024-03-17T08:39:28;95990.50;;;13.67;47.78
86322;BME280;76978;42.798;23.336;2024-03-17T08:41:54;95986.75;;;13.79;46.21
86322;BME280;76978;42.798;23.336;2024-03-17T08:44:19;95983.16;;;13.90;46.70
86322;BME280;76978;42.798;23.336;2024-03-17T08:46:44;95980.63;;;14.16;46.40
86322;BME280;76978;42.798;23.336;2024-03-17T08:49:10;95974.41;;;14.44;45.74
86322;BME280;76978;42.798;23.336;2024-03-17T08:51:35;95968.75;;;14.75;44.49
86322;BME280;76978;42.798;23.336;2024-03-17T08:54:00;95966.06;;;15.11;44.09
86322;BME280;76978;42.798;23.336;2024-03-17T08:56:26;95969.63;;;15.52;43.37
86322;BME280;76978;42.798;23.336;2024-03-17T08:58:51;95973.34;;;15.83;41.30
86322;BME280;76978;42.798;23.336;2024-03-17T09:01:16;95956.31;;;15.97;41.22
86322;BME280;76978;42.798;23.336;2024-03-17T09:03:42;95956.97;;;16.15;40.48
86322;BME280;76978;42.798;23.336;2024-03-17T09:06:15;95953.38;;;16.16;39.98
86322;BME280;76978;42.798;23.336;2024-03-17T09:08:46;95946.38;;;16.25;39.50
86322;BME280;76978;42.798;23.336;2024-03-17T09:11:12;95945.25;;;16.36;39.42
86322;BME280;76978;42.798;23.336;2024-03-17T09:13:38;95944.63;;;16.50;38.64
86322;BME280;76978;42.798;23.336;2024-03-17T09:16:04;95942.97;;;16.65;38.91
86322;BME280;76978;42.798;23.336;2024-03-17T09:18:31;95942.50;;;16.62;39.34
86322;BME280;76978;42.798;23.336;2024-03-17T09:20:58;95940.88;;;16.52;39.04
86322;BME280;76978;42.798;23.336;2024-03-17T09:23:23;95943.78;;;16.58;39.57
86322;BME280;76978;42.798;23.336;2024-03-17T09:26:00;95936.28;;;16.55;39.48
86322;BME280;76978;42.798;23.336;2024-03-17T09:28:28;95939.22;;;16.43;39.40
86322;BME280;76978;42.798;23.336;2024-03-17T09:30:54;95936.78;;;16.26;39.98
86322;BME280;76978;42.798;23.336;2024-03-17T09:33:21;95937.63;;;16.18;40.25
86322;BME280;76978;42.798;23.336;2024-03-17T09:35:57;95937.44;;;16.19;40.42
86322;BME280;76978;42.798;23.336;2024-03-17T09:38:23;95935.16;;;16.24;41.00
86322;BME280;76978;42.798;23.336;2024-03-17T09:40:49;95924.91;;;16.31;41.03
86322;BME280;76978;42.798;23.336;2024-03-17T09:43:18;95926.69;;;16.39;40.38
86322;BME280;76978;42.798;23.336;2024-03-17T09:45:43;95925.69;;;16.48;40.40
86322;BME280;76978;42.798;23.336;2024-03-17T09:48:14;95918.69;;;16.57;40.63
86322;BME280;76978;42.798;23.336;2024-03-17T09:50:40;95928.97;;;16.74;40.51
86322;BME280;76978;42.798;23.336;2024-03-17T09:53:06;95921.09;;;16.91;40.81
86322;BME280;76978;42.798;23.336;2024-03-17T09:55:36;95922.16;;;17.21;40.30
86322;BME280;76978;42.798;23.336;2024-03-17T09:58:02;95922.25;;;17.35;40.21
86322;BME280;76978;42.798;23.336;2024-03-17T10:00:28;95919.56;;;17.52;39.23
86322;BME280;76978;42.798;23.336;2024-03-17T10:02:53;95923.16;;;17.51;38.47
86322;BME280;76978;42.798;23.336;2024-03-17T10:05:20;95928.34;;;17.59;37.94
86322;BME280;76978;42.798;23.336;2024-03-17T10:07:49;95920.38;;;17.52;37.67
86322;BME280;76978;42.798;23.336;2024-03-17T10:10:15;95917.34;;;17.41;37.71
86322;BME280;76978;42.798;23.336;2024-03-17T10:12:48;95915.78;;;17.23;37.64
86322;BME280;76978;42.798;23.336;2024-03-17T10:15:14;95921.06;;;17.07;36.98
86322;BME280;76978;42.798;23.336;2024-03-17T10:17:39;95917.19;;;16.95;37.50
86322;BME280;76978;42.798;23.336;2024-03-17T10:22:36;95914.63;;;16.54;37.83
86322;BME280;76978;42.798;23.336;2024-03-17T10:25:01;95922.44;;;16.46;39.06
86322;BME280;76978;42.798;23.336;2024-03-17T10:27:27;95923.13;;;16.40;39.17
86322;BME280;76978;42.798;23.336;2024-03-17T10:29:53;95918.38;;;16.27;38.43
86322;BME280;76978;42.798;23.336;2024-03-17T10:32:19;95915.97;;;16.17;39.08
86322;BME280;76978;42.798;23.336;2024-03-17T10:34:47;95921.00;;;16.03;39.63
86322;BME280;76978;42.798;23.336;2024-03-17T10:37:13;95918.38;;;15.94;37.86
86322;BME280;76978;42.798;23.336;2024-03-17T10:39:41;95914.16;;;15.85;37.48
86322;BME280;76978;42.798;23.336;2024-03-17T10:42:08;95912.66;;;15.83;38.31
86322;BME280;76978;42.798;23.336;2024-03-17T10:45:00;95911.03;;;15.82;38.44
86322;BME280;76978;42.798;23.336;2024-03-17T10:47:26;95913.47;;;15.83;37.30
86322;BME280;76978;42.798;23.336;2024-03-17T10:49:54;95913.00;;;15.88;38.27
86322;BME280;76978;42.798;23.336;2024-03-17T10:52:21;95906.69;;;15.99;39.30
86322;BME280;76978;42.798;23.336;2024-03-17T10:54:53;95911.22;;;16.13;37.63
86322;BME280;76978;42.798;23.336;2024-03-17T10:59:59;95903.25;;;16.31;38.38
86322;BME280;76978;42.798;23.336;2024-03-17T11:02:27;95894.59;;;16.38;36.58
86322;BME280;76978;42.798;23.336;2024-03-17T11:05:29;95883.19;;;16.47;35.52
86322;BME280;76978;42.798;23.336;2024-03-17T11:08:34;95886.31;;;16.51;36.26
86322;BME280;76978;42.798;23.336;2024-03-17T11:11:36;95879.63;;;16.48;33.28
86322;BME280;76978;42.798;23.336;2024-03-17T11:14:25;95887.13;;;16.51;33.43
86322;BME280;76978;42.798;23.336;2024-03-17T11:17:19;95883.03;;;16.49;32.09
86322;BME280;76978;42.798;23.336;2024-03-17T11:23:29;95875.09;;;16.42;32.62
86322;BME280;76978;42.798;23.336;2024-03-17T11:26:26;95868.25;;;16.33;33.26
86322;BME280;76978;42.798;23.336;2024-03-17T11:28:53;95875.25;;;16.33;33.38
86322;BME280;76978;42.798;23.336;2024-03-17T11:34:06;95870.03;;;16.24;33.87
86322;BME280;76978;42.798;23.336;2024-03-17T11:36:40;95867.44;;;16.16;34.41
86322;BME280;76978;42.798;23.336;2024-03-17T11:39:07;95861.56;;;16.06;34.44
86322;BME280;76978;42.798;23.336;2024-03-17T11:41:47;95859.31;;;15.95;34.88
86322;BME280;76978;42.798;23.336;2024-03-17T11:46:43;95858.19;;;15.89;35.08
86322;BME280;76978;42.798;23.336;2024-03-17T11:51:46;95860.75;;;15.73;35.81
86322;BME280;76978;42.798;23.336;2024-03-17T11:54:16;95856.38;;;15.74;35.24
86322;BME280;76978;42.798;23.336;2024-03-17T11:56:45;95853.13;;;15.80;36.09
86322;BME280;76978;42.798;23.336;2024-03-17T11:59:11;95859.16;;;15.80;34.65
86322;BME280;76978;42.798;23.336;2024-03-17T12:01:37;95850.88;;;15.85;35.75
86322;BME280;76978;42.798;23.336;2024-03-17T12:04:05;95840.25;;;15.94;35.23
86322;BME280;76978;42.798;23.336;2024-03-17T12:06:33;95849.53;;;16.13;34.89
86322;BME280;76978;42.798;23.336;2024-03-17T12:09:19;95849.22;;;16.16;35.24
86322;BME280;76978;42.798;23.336;2024-03-17T12:11:47;95842.88;;;16.11;35.53
86322;BME280;76978;42.798;23.336;2024-03-17T12:14:17;95834.91;;;16.12;36.05
86322;BME280;76978;42.798;23.336;2024-03-17T12:19:15;95846.94;;;16.13;37.26
86322;BME280;76978;42.798;23.336;2024-03-17T12:21:46;95839.13;;;16.13;37.24
86322;BME280;76978;42.798;23.336;2024-03-17T12:24:18;95836.53;;;16.13;36.83
86322;BME280;76978;42.798;23.336;2024-03-17T12:26:46;95845.16;;;15.81;37.46
86322;BME280;76978;42.798;23.336;2024-03-17T12:29:35;95834.09;;;15.79;37.31
86322;BME280;76978;42.798;23.336;2024-03-17T12:32:11;95844.34;;;15.64;38.22
86322;BME280;76978;42.798;23.336;2024-03-17T12:34:38;95846.91;;;15.56;38.32
86322;BME280;76978;42.798;23.336;2024-03-17T12:37:04;95838.75;;;15.43;38.48
86322;BME280;76978;42.798;23.336;2024-03-17T12:39:31;95841.78;;;15.22;39.76
86322;BME280;76978;42.798;23.336;2024-03-17T12:42:11;95841.56;;;15.07;40.49
86322;BME280;76978;42.798;23.336;2024-03-17T12:44:49;95847.44;;;15.10;39.88
86322;BME280;76978;42.798;23.336;2024-03-17T12:49:46;95847.03;;;14.88;40.52
86322;BME280;76978;42.798;23.336;2024-03-17T12:52:25;95844.69;;;14.69;42.09
86322;BME280;76978;42.798;23.336;2024-03-17T12:57:49;95838.97;;;14.39;42.69
86322;BME280;76978;42.798;23.336;2024-03-17T13:00:33;95838.91;;;14.31;42.86
86322;BME280;76978;42.798;23.336;2024-03-17T13:03:01;95836.13;;;14.25;43.35
86322;BME280;76978;42.798;23.336;2024-03-17T13:05:27;95837.03;;;14.15;43.25
86322;BME280;76978;42.798;23.336;2024-03-17T13:07:53;95835.72;;;14.11;43.59
86322;BME280;76978;42.798;23.336;2024-03-17T13:10:20;95830.38;;;14.13;42.74
86322;BME280;76978;42.798;23.336;2024-03-17T13:12:47;95829.69;;;14.11;41.80
86322;BME280;76978;42.798;23.336;2024-03-17T13:15:15;95826.44;;;14.09;43.01
86322;BME280;76978;42.798;23.336;2024-03-17T13:17:44;95836.16;;;14.07;42.89
86322;BME280;76978;42.798;23.336;2024-03-17T13:20:14;95834.69;;;14.04;43.21
86322;BME280;76978;42.798;23.336;2024-03-17T13:22:41;95829.66;;;14.03;43.49
86322;BME280;76978;42.798;23.336;2024-03-17T13:25:17;95829.28;;;13.98;43.21
86322;BME280;76978;42.798;23.336;2024-03-17T13:27:44;95830.06;;;13.98;43.63
86322;BME280;76978;42.798;23.336;2024-03-17T13:30:14;95831.84;;;13.98;44.27